LFKC/CLY METAR and TAF weather

Enter ICAO airport designator
Station Type Date Time Source
LFKC METAR 2019/11/18 04:00 UTC NOAA

LFKC 180400Z AUTO VRB03KT CAVOK 09/04 Q1009 NOSIG


Station Type Date Time Source
LFKC Decoded METAR 2019/11/18 04:00 UTC NOAA

Calvi, France (LFKC) 42-32N 008-48E 58M
Nov 17, 2019 - 11:00 PM EST / 2019.11.18 0400 UTC
Wind: Variable at 3 MPH (3 KT):0
Visibility: greater than 7 mile(s):0
Temperature: 48 F (9 C)
Dew Point: 39 F (4 C)
Relative Humidity: 70%
Pressure (altimeter): 29.80 in. Hg (1009 hPa)
ob: LFKC 180400Z AUTO VRB03KT CAVOK 09/04 Q1009 NOSIG
cycle: 4

Station Type Date Time Source
LFKC TAF 2019/11/18 03:42 UTC NOAA

TAF LFKC 180200Z 1803/1903 18010KT CAVOK TX13/1812Z TN09/1804Z
BECMG 1806/1808 06004KT SCT050 BKN090
TEMPO 1810/1818 SHRA SCT030CB BKN050

Example: see airport list